sensor_id;sensor_type;location;lat;lon;timestamp;temperature;humidity
22734;DHT22;11534;51.994;5.692;2023-12-29T00:01:08;10.60;99.90
22734;DHT22;11534;51.994;5.692;2023-12-29T00:06:11;10.50;99.90
22734;DHT22;11534;51.994;5.692;2023-12-29T00:08:37;10.60;99.90
22734;DHT22;11534;51.994;5.692;2023-12-29T00:11:03;10.60;99.90
22734;DHT22;11534;51.994;5.692;2023-12-29T00:13:29;10.50;99.90
22734;DHT22;11534;51.994;5.692;2023-12-29T00:15:55;10.50;99.90
22734;DHT22;11534;51.994;5.692;2023-12-29T00:18:21;10.50;99.90
22734;DHT22;11534;51.994;5.692;2023-12-29T00:20:48;10.60;99.90
22734;DHT22;11534;51.994;5.692;2023-12-29T00:23:14;10.60;99.90
22734;DHT22;11534;51.994;5.692;2023-12-29T00:25:40;10.70;99.90
22734;DHT22;11534;51.994;5.692;2023-12-29T00:28:07;10.60;99.90
22734;DHT22;11534;51.994;5.692;2023-12-29T00:30:32;10.50;99.90
22734;DHT22;11534;51.994;5.692;2023-12-29T00:32:59;10.60;99.90
22734;DHT22;11534;51.994;5.692;2023-12-29T00:35:24;10.60;99.90
22734;DHT22;11534;51.994;5.692;2023-12-29T00:37:52;10.50;99.90
22734;DHT22;11534;51.994;5.692;2023-12-29T00:40:17;10.50;99.90
22734;DHT22;11534;51.994;5.692;2023-12-29T00:42:43;10.50;99.90
22734;DHT22;11534;51.994;5.692;2023-12-29T00:45:09;10.60;99.90
22734;DHT22;11534;51.994;5.692;2023-12-29T00:47:36;10.60;99.90
22734;DHT22;11534;51.994;5.692;2023-12-29T00:50:01;10.50;99.90
22734;DHT22;11534;51.994;5.692;2023-12-29T00:52:28;10.50;99.90
22734;DHT22;11534;51.994;5.692;2023-12-29T00:54:53;10.50;99.90
22734;DHT22;11534;51.994;5.692;2023-12-29T00:57:19;10.50;99.90
22734;DHT22;11534;51.994;5.692;2023-12-29T00:59:47;10.50;99.90
22734;DHT22;11534;51.994;5.692;2023-12-29T01:02:12;10.50;99.90
22734;DHT22;11534;51.994;5.692;2023-12-29T01:04:38;10.50;99.90
22734;DHT22;11534;51.994;5.692;2023-12-29T01:07:04;10.50;99.90
22734;DHT22;11534;51.994;5.692;2023-12-29T01:09:30;10.60;99.90
22734;DHT22;11534;51.994;5.692;2023-12-29T01:11:56;10.60;99.90
22734;DHT22;11534;51.994;5.692;2023-12-29T01:14:21;10.60;99.90
22734;DHT22;11534;51.994;5.692;2023-12-29T01:16:47;10.60;99.90
22734;DHT22;11534;51.994;5.692;2023-12-29T01:19:13;10.60;99.90
22734;DHT22;11534;51.994;5.692;2023-12-29T01:21:39;10.60;99.90
22734;DHT22;11534;51.994;5.692;2023-12-29T01:24:05;10.60;99.90
22734;DHT22;11534;51.994;5.692;2023-12-29T01:26:39;10.50;99.90
22734;DHT22;11534;51.994;5.692;2023-12-29T01:29:05;10.60;99.90
22734;DHT22;11534;51.994;5.692;2023-12-29T01:31:31;10.50;99.90
22734;DHT22;11534;51.994;5.692;2023-12-29T01:33:57;10.50;99.90
22734;DHT22;11534;51.994;5.692;2023-12-29T01:36:23;10.50;99.90
22734;DHT22;11534;51.994;5.692;2023-12-29T01:38:49;10.50;99.90
22734;DHT22;11534;51.994;5.692;2023-12-29T01:41:15;10.50;99.90
22734;DHT22;11534;51.994;5.692;2023-12-29T01:46:22;10.50;99.90
22734;DHT22;11534;51.994;5.692;2023-12-29T01:48:48;10.50;99.90
22734;DHT22;11534;51.994;5.692;2023-12-29T01:51:15;10.50;99.90
22734;DHT22;11534;51.994;5.692;2023-12-29T01:53:42;10.50;99.90
22734;DHT22;11534;51.994;5.692;2023-12-29T01:56:08;10.40;99.90
22734;DHT22;11534;51.994;5.692;2023-12-29T01:58:34;10.50;99.90
22734;DHT22;11534;51.994;5.692;2023-12-29T02:01:01;10.50;99.90
22734;DHT22;11534;51.994;5.692;2023-12-29T02:03:27;10.50;99.90
22734;DHT22;11534;51.994;5.692;2023-12-29T02:05:55;10.40;99.90
22734;DHT22;11534;51.994;5.692;2023-12-29T02:08:22;10.40;99.90
22734;DHT22;11534;51.994;5.692;2023-12-29T02:10:48;10.40;99.90
22734;DHT22;11534;51.994;5.692;2023-12-29T02:13:14;10.40;99.90
22734;DHT22;11534;51.994;5.692;2023-12-29T02:15:40;10.40;99.90
22734;DHT22;11534;51.994;5.692;2023-12-29T02:18:08;10.50;99.90
22734;DHT22;11534;51.994;5.692;2023-12-29T02:20:35;10.50;99.90
22734;DHT22;11534;51.994;5.692;2023-12-29T02:23:02;10.50;99.90
22734;DHT22;11534;51.994;5.692;2023-12-29T02:25:28;10.40;99.90
22734;DHT22;11534;51.994;5.692;2023-12-29T02:28:18;10.40;99.90
22734;DHT22;11534;51.994;5.692;2023-12-29T02:31:00;10.30;99.90
22734;DHT22;11534;51.994;5.692;2023-12-29T02:33:26;10.30;99.90
22734;DHT22;11534;51.994;5.692;2023-12-29T02:35:55;10.30;99.90
22734;DHT22;11534;51.994;5.692;2023-12-29T02:38:22;10.20;99.90
22734;DHT22;11534;51.994;5.692;2023-12-29T02:40:48;10.20;99.90
22734;DHT22;11534;51.994;5.692;2023-12-29T02:43:13;10.20;99.90
22734;DHT22;11534;51.994;5.692;2023-12-29T02:45:39;10.20;99.90
22734;DHT22;11534;51.994;5.692;2023-12-29T02:48:05;10.20;99.90
22734;DHT22;11534;51.994;5.692;2023-12-29T02:50:31;10.10;99.90
22734;DHT22;11534;51.994;5.692;2023-12-29T02:52:56;10.10;99.90
22734;DHT22;11534;51.994;5.692;2023-12-29T02:55:22;10.10;99.90
22734;DHT22;11534;51.994;5.692;2023-12-29T02:57:48;10.10;99.90
22734;DHT22;11534;51.994;5.692;2023-12-29T03:55:46;10.10;99.90
22734;DHT22;11534;51.994;5.692;2023-12-29T04:00:59;10.00;99.90
22734;DHT22;11534;51.994;5.692;2023-12-29T04:03:26;9.90;99.90
22734;DHT22;11534;51.994;5.692;2023-12-29T04:05:57;9.90;99.90
22734;DHT22;11534;51.994;5.692;2023-12-29T04:08:24;9.90;99.90
22734;DHT22;11534;51.994;5.692;2023-12-29T04:10:50;9.90;99.90
22734;DHT22;11534;51.994;5.692;2023-12-29T04:13:16;10.00;99.90
22734;DHT22;11534;51.994;5.692;2023-12-29T04:15:42;10.10;99.90
22734;DHT22;11534;51.994;5.692;2023-12-29T04:18:11;10.10;99.90
22734;DHT22;11534;51.994;5.692;2023-12-29T04:20:37;10.10;99.90
22734;DHT22;11534;51.994;5.692;2023-12-29T04:23:05;10.10;99.90
22734;DHT22;11534;51.994;5.692;2023-12-29T04:25:33;10.00;99.90
22734;DHT22;11534;51.994;5.692;2023-12-29T04:27:59;10.00;99.90
22734;DHT22;11534;51.994;5.692;2023-12-29T04:30:25;10.00;99.90
22734;DHT22;11534;51.994;5.692;2023-12-29T04:32:50;10.10;99.90
22734;DHT22;11534;51.994;5.692;2023-12-29T04:35:16;10.10;99.90
22734;DHT22;11534;51.994;5.692;2023-12-29T04:37:45;10.10;99.90
22734;DHT22;11534;51.994;5.692;2023-12-29T04:40:14;10.10;99.90
22734;DHT22;11534;51.994;5.692;2023-12-29T04:42:40;10.10;99.90
22734;DHT22;11534;51.994;5.692;2023-12-29T04:45:06;10.20;99.90
22734;DHT22;11534;51.994;5.692;2023-12-29T04:47:32;10.10;99.90
22734;DHT22;11534;51.994;5.692;2023-12-29T04:49:58;10.00;99.90
22734;DHT22;11534;51.994;5.692;2023-12-29T04:52:27;10.10;99.90
22734;DHT22;11534;51.994;5.692;2023-12-29T04:54:53;10.20;99.90
22734;DHT22;11534;51.994;5.692;2023-12-29T04:57:19;10.20;99.90
22734;DHT22;11534;51.994;5.692;2023-12-29T04:59:45;10.20;99.90
22734;DHT22;11534;51.994;5.692;2023-12-29T05:02:11;10.10;99.90
22734;DHT22;11534;51.994;5.692;2023-12-29T05:04:37;10.10;99.90
22734;DHT22;11534;51.994;5.692;2023-12-29T05:07:12;10.10;99.90
22734;DHT22;11534;51.994;5.692;2023-12-29T06:25:10;10.00;99.90
22734;DHT22;11534;51.994;5.692;2023-12-29T06:27:43;10.00;99.90
22734;DHT22;11534;51.994;5.692;2023-12-29T06:30:12;10.00;99.90
22734;DHT22;11534;51.994;5.692;2023-12-29T06:32:38;10.00;99.90
22734;DHT22;11534;51.994;5.692;2023-12-29T06:35:05;10.00;99.90
22734;DHT22;11534;51.994;5.692;2023-12-29T06:37:36;10.00;99.90
22734;DHT22;11534;51.994;5.692;2023-12-29T06:40:12;10.00;99.90
22734;DHT22;11534;51.994;5.692;2023-12-29T06:42:41;10.00;99.90
22734;DHT22;11534;51.994;5.692;2023-12-29T06:45:07;10.00;99.90
22734;DHT22;11534;51.994;5.692;2023-12-29T06:47:34;10.00;99.90
22734;DHT22;11534;51.994;5.692;2023-12-29T06:50:00;10.00;99.90
22734;DHT22;11534;51.994;5.692;2023-12-29T06:52:28;9.90;99.90
22734;DHT22;11534;51.994;5.692;2023-12-29T06:55:00;10.00;99.90
22734;DHT22;11534;51.994;5.692;2023-12-29T06:57:25;10.00;99.90
22734;DHT22;11534;51.994;5.692;2023-12-29T06:59:51;10.00;99.90
22734;DHT22;11534;51.994;5.692;2023-12-29T07:02:17;10.00;99.90
22734;DHT22;11534;51.994;5.692;2023-12-29T07:04:44;10.00;99.90
22734;DHT22;11534;51.994;5.692;2023-12-29T07:46:10;9.40;99.90
22734;DHT22;11534;51.994;5.692;2023-12-29T07:48:40;9.40;99.90
22734;DHT22;11534;51.994;5.692;2023-12-29T07:51:12;9.30;99.90
22734;DHT22;11534;51.994;5.692;2023-12-29T07:57:42;9.30;99.90
22734;DHT22;11534;51.994;5.692;2023-12-29T08:39:24;9.50;99.90
22734;DHT22;11534;51.994;5.692;2023-12-29T08:41:49;9.50;99.90
22734;DHT22;11534;51.994;5.692;2023-12-29T08:44:25;9.50;99.90
22734;DHT22;11534;51.994;5.692;2023-12-29T08:47:04;9.50;99.90
22734;DHT22;11534;51.994;5.692;2023-12-29T08:49:46;9.60;99.90
22734;DHT22;11534;51.994;5.692;2023-12-29T08:52:31;9.60;99.90
22734;DHT22;11534;51.994;5.692;2023-12-29T09:00:09;9.60;99.90
22734;DHT22;11534;51.994;5.692;2023-12-29T09:02:35;9.60;99.90
22734;DHT22;11534;51.994;5.692;2023-12-29T09:07:34;9.70;99.90
22734;DHT22;11534;51.994;5.692;2023-12-29T09:09:59;9.70;99.90
22734;DHT22;11534;51.994;5.692;2023-12-29T09:12:27;9.70;99.90
22734;DHT22;11534;51.994;5.692;2023-12-29T09:14:53;9.70;99.90
22734;DHT22;11534;51.994;5.692;2023-12-29T09:17:19;9.80;99.90
22734;DHT22;11534;51.994;5.692;2023-12-29T09:22:21;9.80;99.90
22734;DHT22;11534;51.994;5.692;2023-12-29T09:24:47;9.80;99.90
22734;DHT22;11534;51.994;5.692;2023-12-29T09:27:16;9.90;99.90
22734;DHT22;11534;51.994;5.692;2023-12-29T09:29:42;9.90;99.90
22734;DHT22;11534;51.994;5.692;2023-12-29T09:32:10;9.90;99.90
22734;DHT22;11534;51.994;5.692;2023-12-29T09:34:35;9.90;99.90
22734;DHT22;11534;51.994;5.692;2023-12-29T09:37:01;9.90;99.90
22734;DHT22;11534;51.994;5.692;2023-12-29T09:39:27;9.90;99.90
22734;DHT22;11534;51.994;5.692;2023-12-29T09:44:31;10.00;99.90
22734;DHT22;11534;51.994;5.692;2023-12-29T09:47:01;10.00;99.90
22734;DHT22;11534;51.994;5.692;2023-12-29T09:49:35;10.00;99.90
22734;DHT22;11534;51.994;5.692;2023-12-29T09:52:03;10.10;99.90
22734;DHT22;11534;51.994;5.692;2023-12-29T09:54:30;10.10;99.90
22734;DHT22;11534;51.994;5.692;2023-12-29T09:56:59;10.10;99.90
22734;DHT22;11534;51.994;5.692;2023-12-29T10:04:34;10.10;99.90
22734;DHT22;11534;51.994;5.692;2023-12-29T10:07:02;10.10;99.90
22734;DHT22;11534;51.994;5.692;2023-12-29T10:09:34;10.20;99.90
22734;DHT22;11534;51.994;5.692;2023-12-29T10:15:28;10.20;99.90
22734;DHT22;11534;51.994;5.692;2023-12-29T10:24:04;10.30;99.90
22734;DHT22;11534;51.994;5.692;2023-12-29T10:26:31;10.30;99.90
22734;DHT22;11534;51.994;5.692;2023-12-29T10:39:18;10.40;99.90
22734;DHT22;11534;51.994;5.692;2023-12-29T10:41:43;10.40;99.90
22734;DHT22;11534;51.994;5.692;2023-12-29T10:44:15;10.40;99.90
22734;DHT22;11534;51.994;5.692;2023-12-29T10:46:41;10.40;99.90
22734;DHT22;11534;51.994;5.692;2023-12-29T10:49:12;10.50;99.90
22734;DHT22;11534;51.994;5.692;2023-12-29T10:51:40;10.50;99.90
22734;DHT22;11534;51.994;5.692;2023-12-29T10:54:06;10.50;99.90
22734;DHT22;11534;51.994;5.692;2023-12-29T10:56:33;10.50;99.90
22734;DHT22;11534;51.994;5.692;2023-12-29T10:59:03;10.50;99.90
22734;DHT22;11534;51.994;5.692;2023-12-29T11:01:33;10.50;99.90
22734;DHT22;11534;51.994;5.692;2023-12-29T11:04:00;10.50;99.90
22734;DHT22;11534;51.994;5.692;2023-12-29T11:06:27;10.50;99.90
22734;DHT22;11534;51.994;5.692;2023-12-29T11:08:54;10.50;99.90
22734;DHT22;11534;51.994;5.692;2023-12-29T11:11:24;10.50;99.90
22734;DHT22;11534;51.994;5.692;2023-12-29T11:13:51;10.60;99.90
22734;DHT22;11534;51.994;5.692;2023-12-29T11:16:19;10.50;99.90
22734;DHT22;11534;51.994;5.692;2023-12-29T11:18:47;10.50;99.90
22734;DHT22;11534;51.994;5.692;2023-12-29T11:21:16;10.50;99.90
22734;DHT22;11534;51.994;5.692;2023-12-29T11:23:42;10.60;99.90
22734;DHT22;11534;51.994;5.692;2023-12-29T11:26:08;10.60;99.90
22734;DHT22;11534;51.994;5.692;2023-12-29T11:28:34;10.60;99.90
22734;DHT22;11534;51.994;5.692;2023-12-29T11:31:00;10.60;99.90
22734;DHT22;11534;51.994;5.692;2023-12-29T11:33:34;10.60;99.90
22734;DHT22;11534;51.994;5.692;2023-12-29T11:41:27;10.80;99.90
22734;DHT22;11534;51.994;5.692;2023-12-29T11:44:00;10.80;99.90
22734;DHT22;11534;51.994;5.692;2023-12-29T11:46:40;10.80;99.90
22734;DHT22;11534;51.994;5.692;2023-12-29T11:49:08;10.80;99.90
22734;DHT22;11534;51.994;5.692;2023-12-29T11:51:42;10.80;99.90
22734;DHT22;11534;51.994;5.692;2023-12-29T11:54:27;10.90;99.90
22734;DHT22;11534;51.994;5.692;2023-12-29T11:56:53;10.80;99.90
22734;DHT22;11534;51.994;5.692;2023-12-29T12:01:47;10.90;99.90
22734;DHT22;11534;51.994;5.692;2023-12-29T12:09:42;10.90;99.90
22734;DHT22;11534;51.994;5.692;2023-12-29T12:12:10;10.80;99.90
22734;DHT22;11534;51.994;5.692;2023-12-29T12:17:09;10.90;99.90
22734;DHT22;11534;51.994;5.692;2023-12-29T12:19:36;10.90;99.90
22734;DHT22;11534;51.994;5.692;2023-12-29T12:22:02;10.90;99.90
22734;DHT22;11534;51.994;5.692;2023-12-29T12:24:31;10.90;99.90
22734;DHT22;11534;51.994;5.692;2023-12-29T12:26:58;10.90;99.90
22734;DHT22;11534;51.994;5.692;2023-12-29T12:29:24;10.90;99.90
22734;DHT22;11534;51.994;5.692;2023-12-29T12:31:54;10.90;99.90
22734;DHT22;11534;51.994;5.692;2023-12-29T12:34:20;10.90;99.90
22734;DHT22;11534;51.994;5.692;2023-12-29T12:36:53;10.90;99.90
22734;DHT22;11534;51.994;5.692;2023-12-29T12:39:25;10.90;99.90
22734;DHT22;11534;51.994;5.692;2023-12-29T12:42:03;10.90;99.90
22734;DHT22;11534;51.994;5.692;2023-12-29T12:44:30;10.90;99.90
22734;DHT22;11534;51.994;5.692;2023-12-29T12:46:59;10.90;99.90
22734;DHT22;11534;51.994;5.692;2023-12-29T12:49:29;11.00;99.90
22734;DHT22;11534;51.994;5.692;2023-12-29T12:51:55;11.00;99.90
22734;DHT22;11534;51.994;5.692;2023-12-29T12:54:22;11.00;99.90
22734;DHT22;11534;51.994;5.692;2023-12-29T12:56:49;10.90;99.90
22734;DHT22;11534;51.994;5.692;2023-12-29T12:59:16;10.90;99.90
22734;DHT22;11534;51.994;5.692;2023-12-29T13:01:42;10.90;99.90
22734;DHT22;11534;51.994;5.692;2023-12-29T13:04:08;10.90;99.90
22734;DHT22;11534;51.994;5.692;2023-12-29T13:06:39;10.90;99.90
22734;DHT22;11534;51.994;5.692;2023-12-29T13:09:07;10.90;99.90
22734;DHT22;11534;51.994;5.692;2023-12-29T13:11:44;10.90;99.90
22734;DHT22;11534;51.994;5.692;2023-12-29T13:14:23;10.90;99.90
22734;DHT22;11534;51.994;5.692;2023-12-29T13:16:51;10.80;99.90
22734;DHT22;11534;51.994;5.692;2023-12-29T13:19:20;10.80;99.90
22734;DHT22;11534;51.994;5.692;2023-12-29T13:21:50;10.80;99.90
22734;DHT22;11534;51.994;5.692;2023-12-29T13:24:17;10.80;99.90
22734;DHT22;11534;51.994;5.692;2023-12-29T13:26:52;10.80;99.90
22734;DHT22;11534;51.994;5.692;2023-12-29T13:29:21;10.80;99.90
22734;DHT22;11534;51.994;5.692;2023-12-29T13:31:49;10.80;99.90
22734;DHT22;11534;51.994;5.692;2023-12-29T13:42:59;10.70;99.90
22734;DHT22;11534;51.994;5.692;2023-12-29T13:45:26;10.70;99.90
22734;DHT22;11534;51.994;5.692;2023-12-29T13:47:53;10.70;99.90
22734;DHT22;11534;51.994;5.692;2023-12-29T13:50:19;10.70;99.90
22734;DHT22;11534;51.994;5.692;2023-12-29T13:52:45;10.70;99.90
22734;DHT22;11534;51.994;5.692;2023-12-29T13:55:11;10.70;99.90
22734;DHT22;11534;51.994;5.692;2023-12-29T13:57:37;10.60;99.90
22734;DHT22;11534;51.994;5.692;2023-12-29T14:00:25;10.60;99.90
22734;DHT22;11534;51.994;5.692;2023-12-29T14:03:09;10.60;99.90
22734;DHT22;11534;51.994;5.692;2023-12-29T14:10:31;10.60;99.90
22734;DHT22;11534;51.994;5.692;2023-12-29T14:13:07;10.70;99.90
22734;DHT22;11534;51.994;5.692;2023-12-29T14:15:41;10.60;99.90
22734;DHT22;11534;51.994;5.692;2023-12-29T14:26:34;10.50;99.90
22734;DHT22;11534;51.994;5.692;2023-12-29T14:29:01;10.50;99.90
22734;DHT22;11534;51.994;5.692;2023-12-29T14:31:27;10.50;99.90
22734;DHT22;11534;51.994;5.692;2023-12-29T14:33:52;10.50;99.90
22734;DHT22;11534;51.994;5.692;2023-12-29T14:36:22;10.50;99.90
22734;DHT22;11534;51.994;5.692;2023-12-29T14:38:54;10.50;99.90
22734;DHT22;11534;51.994;5.692;2023-12-29T15:27:54;9.50;99.90
22734;DHT22;11534;51.994;5.692;2023-12-29T15:30:25;9.40;99.90
22734;DHT22;11534;51.994;5.692;2023-12-29T15:32:51;9.40;99.90
22734;DHT22;11534;51.994;5.692;2023-12-29T15:35:49;9.30;99.90
22734;DHT22;11534;51.994;5.692;2023-12-29T19:03:01;7.70;99.90
22734;DHT22;11534;51.994;5.692;2023-12-29T19:05:28;7.60;99.90
22734;DHT22;11534;51.994;5.692;2023-12-29T19:07:55;7.60;99.90
22734;DHT22;11534;51.994;5.692;2023-12-29T19:10:21;7.60;99.90
22734;DHT22;11534;51.994;5.692;2023-12-29T19:12:46;7.60;99.90
22734;DHT22;11534;51.994;5.692;2023-12-29T19:15:13;7.70;99.90
22734;DHT22;11534;51.994;5.692;2023-12-29T21:15:27;7.80;99.90
22734;DHT22;11534;51.994;5.692;2023-12-29T21:17:52;7.80;99.90
22734;DHT22;11534;51.994;5.692;2023-12-29T21:24:20;7.50;99.90
22734;DHT22;11534;51.994;5.692;2023-12-29T23:12:32;7.40;99.90
22734;DHT22;11534;51.994;5.692;2023-12-29T23:15:01;7.30;99.90
22734;DHT22;11534;51.994;5.692;2023-12-29T23:17:26;7.30;99.90
22734;DHT22;11534;51.994;5.692;2023-12-29T23:19:52;7.30;99.90
22734;DHT22;11534;51.994;5.692;2023-12-29T23:22:18;7.20;99.90
22734;DHT22;11534;51.994;5.692;2023-12-29T23:24:43;7.20;99.90
22734;DHT22;11534;51.994;5.692;2023-12-29T23:27:09;7.20;99.90
22734;DHT22;11534;51.994;5.692;2023-12-29T23:29:38;7.10;99.90
22734;DHT22;11534;51.994;5.692;2023-12-29T23:32:07;7.10;99.90
22734;DHT22;11534;51.994;5.692;2023-12-29T23:34:33;7.10;99.90
22734;DHT22;11534;51.994;5.692;2023-12-29T23:36:59;7.00;99.90
22734;DHT22;11534;51.994;5.692;2023-12-29T23:39:25;7.00;99.90
22734;DHT22;11534;51.994;5.692;2023-12-29T23:41:50;7.00;99.90
22734;DHT22;11534;51.994;5.692;2023-12-29T23:44:16;7.00;99.90
22734;DHT22;11534;51.994;5.692;2023-12-29T23:46:41;7.00;99.90
22734;DHT22;11534;51.994;5.692;2023-12-29T23:49:07;6.90;99.90
22734;DHT22;11534;51.994;5.692;2023-12-29T23:51:33;6.90;99.90
22734;DHT22;11534;51.994;5.692;2023-12-29T23:54:00;6.90;99.90
22734;DHT22;11534;51.994;5.692;2023-12-29T23:56:26;6.90;99.90
22734;DHT22;11534;51.994;5.692;2023-12-29T23:58:52;6.80;99.90
